sensor_id;sensor_type;location;lat;lon;timestamp;P1;P2;P0
29460;PMS7003;16428;47.836;35.106;2023-02-28T00:01:29;3.00;3.00;3.00
29460;PMS7003;16428;47.836;35.106;2023-02-28T00:03:58;3.25;3.25;2.75
29460;PMS7003;16428;47.836;35.106;2023-02-28T00:06:26;3.00;3.00;2.00
29460;PMS7003;16428;47.836;35.106;2023-02-28T00:08:54;1.75;1.75;1.00
29460;PMS7003;16428;47.836;35.106;2023-02-28T00:11:28;4.00;4.00;3.00
29460;PMS7003;16428;47.836;35.106;2023-02-28T00:13:57;2.50;2.25;2.00
29460;PMS7003;16428;47.836;35.106;2023-02-28T00:16:24;1.75;1.75;1.75
29460;PMS7003;16428;47.836;35.106;2023-02-28T00:18:52;5.50;3.00;3.00
29460;PMS7003;16428;47.836;35.106;2023-02-28T00:21:20;6.00;6.00;4.00
29460;PMS7003;16428;47.836;35.106;2023-02-28T00:23:48;4.25;4.25;4.00
29460;PMS7003;16428;47.836;35.106;2023-02-28T00:26:16;3.50;3.50;3.50
29460;PMS7003;16428;47.836;35.106;2023-02-28T00:28:47;2.75;2.75;2.50
29460;PMS7003;16428;47.836;35.106;2023-02-28T00:31:15;2.25;2.25;2.00
29460;PMS7003;16428;47.836;35.106;2023-02-28T00:33:42;2.75;2.75;2.25
29460;PMS7003;16428;47.836;35.106;2023-02-28T00:36:10;6.00;6.00;4.00
29460;PMS7003;16428;47.836;35.106;2023-02-28T00:38:40;5.00;2.00;1.75
29460;PMS7003;16428;47.836;35.106;2023-02-28T00:41:08;2.00;2.00;2.00
29460;PMS7003;16428;47.836;35.106;2023-02-28T00:43:37;3.75;3.75;3.00
29460;PMS7003;16428;47.836;35.106;2023-02-28T00:46:05;2.00;2.00;2.00
29460;PMS7003;16428;47.836;35.106;2023-02-28T00:48:34;1.00;1.00;0.75
29460;PMS7003;16428;47.836;35.106;2023-02-28T00:51:02;2.00;2.00;1.00
29460;PMS7003;16428;47.836;35.106;2023-02-28T00:53:33;6.25;3.00;2.00
29460;PMS7003;16428;47.836;35.106;2023-02-28T00:56:02;3.75;3.00;2.75
29460;PMS7003;16428;47.836;35.106;2023-02-28T00:58:34;1.50;1.50;1.00
29460;PMS7003;16428;47.836;35.106;2023-02-28T01:01:02;2.00;2.00;2.00
29460;PMS7003;16428;47.836;35.106;2023-02-28T01:03:30;6.50;3.50;2.50
29460;PMS7003;16428;47.836;35.106;2023-02-28T01:05:57;4.50;3.00;2.50
29460;PMS7003;16428;47.836;35.106;2023-02-28T01:08:25;4.00;4.00;3.25
29460;PMS7003;16428;47.836;35.106;2023-02-28T01:10:56;6.00;3.00;2.75
29460;PMS7003;16428;47.836;35.106;2023-02-28T01:13:24;3.00;1.00;1.00
29460;PMS7003;16428;47.836;35.106;2023-02-28T01:15:53;8.00;5.00;3.00
29460;PMS7003;16428;47.836;35.106;2023-02-28T01:18:24;7.25;7.25;6.25
29460;PMS7003;16428;47.836;35.106;2023-02-28T01:20:52;6.50;6.50;6.00
29460;PMS7003;16428;47.836;35.106;2023-02-28T01:23:20;10.50;7.50;6.00
29460;PMS7003;16428;47.836;35.106;2023-02-28T01:25:51;10.75;8.25;6.75
29460;PMS7003;16428;47.836;35.106;2023-02-28T01:28:19;7.25;7.25;6.25
29460;PMS7003;16428;47.836;35.106;2023-02-28T01:30:48;10.00;7.25;6.00
29460;PMS7003;16428;47.836;35.106;2023-02-28T01:33:17;5.00;5.00;4.25
29460;PMS7003;16428;47.836;35.106;2023-02-28T01:35:45;7.25;6.00;5.75
29460;PMS7003;16428;47.836;35.106;2023-02-28T01:38:12;7.00;7.00;4.50
29460;PMS7003;16428;47.836;35.106;2023-02-28T01:40:48;7.75;4.75;4.00
29460;PMS7003;16428;47.836;35.106;2023-02-28T01:43:20;10.75;7.00;6.00
29460;PMS7003;16428;47.836;35.106;2023-02-28T01:45:50;6.00;6.00;5.00
29460;PMS7003;16428;47.836;35.106;2023-02-28T01:48:21;4.75;4.25;3.00
29460;PMS7003;16428;47.836;35.106;2023-02-28T01:50:57;4.25;4.25;4.25
29460;PMS7003;16428;47.836;35.106;2023-02-28T01:53:39;6.25;6.25;6.00
29460;PMS7003;16428;47.836;35.106;2023-02-28T01:56:16;8.75;7.00;6.75
29460;PMS7003;16428;47.836;35.106;2023-02-28T01:58:49;6.00;6.00;5.75
29460;PMS7003;16428;47.836;35.106;2023-02-28T02:01:22;6.75;6.75;6.75
29460;PMS7003;16428;47.836;35.106;2023-02-28T02:03:57;9.25;6.25;5.75
29460;PMS7003;16428;47.836;35.106;2023-02-28T02:06:30;9.25;6.25;4.75
29460;PMS7003;16428;47.836;35.106;2023-02-28T02:09:05;8.50;8.50;7.50
29460;PMS7003;16428;47.836;35.106;2023-02-28T02:11:33;3.75;3.75;3.75
29460;PMS7003;16428;47.836;35.106;2023-02-28T02:20:27;14.25;11.50;8.00
29460;PMS7003;16428;47.836;35.106;2023-02-28T02:23:05;3.00;3.00;2.50
29460;PMS7003;16428;47.836;35.106;2023-02-28T02:26:18;8.25;7.25;6.50
29460;PMS7003;16428;47.836;35.106;2023-02-28T02:39:53;17.50;17.50;12.50
29460;PMS7003;16428;47.836;35.106;2023-02-28T02:42:36;23.00;22.75;17.00
29460;PMS7003;16428;47.836;35.106;2023-02-28T02:45:22;24.75;20.75;14.50
29460;PMS7003;16428;47.836;35.106;2023-02-28T02:47:56;21.50;21.50;16.75
29460;PMS7003;16428;47.836;35.106;2023-02-28T02:50:29;26.75;21.00;14.25
29460;PMS7003;16428;47.836;35.106;2023-02-28T02:53:02;18.00;15.25;13.50
29460;PMS7003;16428;47.836;35.106;2023-02-28T02:55:34;22.50;19.50;14.50
29460;PMS7003;16428;47.836;35.106;2023-02-28T02:58:16;22.75;22.75;17.50
29460;PMS7003;16428;47.836;35.106;2023-02-28T03:00:52;31.00;23.50;16.00
29460;PMS7003;16428;47.836;35.106;2023-02-28T03:03:24;31.00;22.00;17.50
29460;PMS7003;16428;47.836;35.106;2023-02-28T03:05:57;24.00;21.00;11.00
29460;PMS7003;16428;47.836;35.106;2023-02-28T03:08:27;28.25;23.50;18.50
29460;PMS7003;16428;47.836;35.106;2023-02-28T03:10:57;27.25;25.75;19.00
29460;PMS7003;16428;47.836;35.106;2023-02-28T03:13:42;32.75;29.50;18.50
29460;PMS7003;16428;47.836;35.106;2023-02-28T03:16:32;32.50;26.00;21.75
29460;PMS7003;16428;47.836;35.106;2023-02-28T03:27:29;31.50;28.75;21.00
29460;PMS7003;16428;47.836;35.106;2023-02-28T03:30:04;43.75;34.00;24.00
29460;PMS7003;16428;47.836;35.106;2023-02-28T03:32:38;41.50;33.00;22.75
29460;PMS7003;16428;47.836;35.106;2023-02-28T03:35:23;32.50;29.25;19.75
29460;PMS7003;16428;47.836;35.106;2023-02-28T03:38:05;30.50;30.50;20.75
29460;PMS7003;16428;47.836;35.106;2023-02-28T03:40:42;37.25;32.25;21.50
29460;PMS7003;16428;47.836;35.106;2023-02-28T03:43:18;38.50;32.50;22.00
29460;PMS7003;16428;47.836;35.106;2023-02-28T03:45:50;34.75;33.25;22.75
29460;PMS7003;16428;47.836;35.106;2023-02-28T03:48:28;39.00;35.00;25.25
29460;PMS7003;16428;47.836;35.106;2023-02-28T03:51:03;30.25;25.00;21.75
29460;PMS7003;16428;47.836;35.106;2023-02-28T03:53:37;39.50;33.25;23.50
29460;PMS7003;16428;47.836;35.106;2023-02-28T03:59:02;31.75;31.50;22.25
29460;PMS7003;16428;47.836;35.106;2023-02-28T04:01:44;42.25;33.50;25.00
29460;PMS7003;16428;47.836;35.106;2023-02-28T04:04:14;38.75;30.75;21.25
29460;PMS7003;16428;47.836;35.106;2023-02-28T04:06:49;31.50;30.50;23.50
29460;PMS7003;16428;47.836;35.106;2023-02-28T04:09:18;29.00;29.00;19.25
29460;PMS7003;16428;47.836;35.106;2023-02-28T04:11:51;34.50;34.50;23.00
29460;PMS7003;16428;47.836;35.106;2023-02-28T04:14:19;43.75;37.50;27.25
29460;PMS7003;16428;47.836;35.106;2023-02-28T04:16:47;36.00;33.75;25.25
29460;PMS7003;16428;47.836;35.106;2023-02-28T04:19:14;56.50;38.50;26.50
29460;PMS7003;16428;47.836;35.106;2023-02-28T04:21:46;33.75;26.50;17.25
29460;PMS7003;16428;47.836;35.106;2023-02-28T04:24:21;36.00;36.00;25.25
29460;PMS7003;16428;47.836;35.106;2023-02-28T04:26:53;33.75;30.75;21.00
29460;PMS7003;16428;47.836;35.106;2023-02-28T04:29:26;47.75;33.75;21.75
29460;PMS7003;16428;47.836;35.106;2023-02-28T04:31:55;42.25;36.50;25.75
29460;PMS7003;16428;47.836;35.106;2023-02-28T04:34:25;40.75;36.25;26.25
29460;PMS7003;16428;47.836;35.106;2023-02-28T04:36:55;42.00;37.00;25.25
29460;PMS7003;16428;47.836;35.106;2023-02-28T04:39:39;38.50;32.50;24.50
29460;PMS7003;16428;47.836;35.106;2023-02-28T04:42:07;43.00;37.50;26.25
29460;PMS7003;16428;47.836;35.106;2023-02-28T04:44:36;40.00;37.00;23.50
29460;PMS7003;16428;47.836;35.106;2023-02-28T04:47:04;34.00;28.75;21.25
29460;PMS7003;16428;47.836;35.106;2023-02-28T04:49:32;37.50;31.75;20.00
29460;PMS7003;16428;47.836;35.106;2023-02-28T04:52:01;36.25;33.00;20.50
29460;PMS7003;16428;47.836;35.106;2023-02-28T04:54:30;40.75;38.50;26.00
29460;PMS7003;16428;47.836;35.106;2023-02-28T04:56:57;34.00;32.25;20.00
29460;PMS7003;16428;47.836;35.106;2023-02-28T04:59:25;42.75;31.25;19.25
29460;PMS7003;16428;47.836;35.106;2023-02-28T05:01:52;40.25;29.25;18.75
29460;PMS7003;16428;47.836;35.106;2023-02-28T05:04:20;33.00;28.50;19.25
29460;PMS7003;16428;47.836;35.106;2023-02-28T05:06:49;36.00;32.25;22.75
29460;PMS7003;16428;47.836;35.106;2023-02-28T05:09:17;44.75;34.00;25.00
29460;PMS7003;16428;47.836;35.106;2023-02-28T05:11:46;37.00;31.00;24.75
29460;PMS7003;16428;47.836;35.106;2023-02-28T05:14:14;40.25;27.50;19.25
29460;PMS7003;16428;47.836;35.106;2023-02-28T05:16:41;37.25;31.25;19.25
29460;PMS7003;16428;47.836;35.106;2023-02-28T05:19:09;35.75;31.50;23.75
29460;PMS7003;16428;47.836;35.106;2023-02-28T05:21:40;27.00;26.00;16.25
29460;PMS7003;16428;47.836;35.106;2023-02-28T05:24:18;24.50;17.00;10.75
29460;PMS7003;16428;47.836;35.106;2023-02-28T05:26:51;30.00;26.50;21.75
29460;PMS7003;16428;47.836;35.106;2023-02-28T05:29:20;35.50;34.00;23.50
29460;PMS7003;16428;47.836;35.106;2023-02-28T05:31:48;35.75;32.75;21.25
29460;PMS7003;16428;47.836;35.106;2023-02-28T05:34:16;34.00;24.50;16.25
29460;PMS7003;16428;47.836;35.106;2023-02-28T05:36:44;31.50;27.50;21.25
29460;PMS7003;16428;47.836;35.106;2023-02-28T05:39:11;56.75;43.75;31.25
29460;PMS7003;16428;47.836;35.106;2023-02-28T05:41:42;45.50;36.00;25.50
29460;PMS7003;16428;47.836;35.106;2023-02-28T05:44:10;43.75;35.25;24.75
29460;PMS7003;16428;47.836;35.106;2023-02-28T05:46:43;47.25;39.25;26.25
29460;PMS7003;16428;47.836;35.106;2023-02-28T05:49:11;38.75;34.75;26.00
29460;PMS7003;16428;47.836;35.106;2023-02-28T05:51:38;31.00;31.00;21.00
29460;PMS7003;16428;47.836;35.106;2023-02-28T05:54:09;35.75;35.25;25.25
29460;PMS7003;16428;47.836;35.106;2023-02-28T05:56:39;29.25;29.00;23.00
29460;PMS7003;16428;47.836;35.106;2023-02-28T05:59:07;41.00;35.00;24.25
29460;PMS7003;16428;47.836;35.106;2023-02-28T06:01:38;34.50;30.75;22.25
29460;PMS7003;16428;47.836;35.106;2023-02-28T06:04:08;36.50;31.25;24.00
29460;PMS7003;16428;47.836;35.106;2023-02-28T06:06:55;39.25;36.25;27.00
29460;PMS7003;16428;47.836;35.106;2023-02-28T06:09:31;31.75;28.50;20.25
29460;PMS7003;16428;47.836;35.106;2023-02-28T06:11:59;41.25;37.50;27.00
29460;PMS7003;16428;47.836;35.106;2023-02-28T06:14:30;41.00;36.00;24.25
29460;PMS7003;16428;47.836;35.106;2023-02-28T06:17:02;41.25;36.50;25.50
29460;PMS7003;16428;47.836;35.106;2023-02-28T06:19:31;42.50;33.75;23.75
29460;PMS7003;16428;47.836;35.106;2023-02-28T06:21:59;36.00;34.25;24.00
29460;PMS7003;16428;47.836;35.106;2023-02-28T06:24:27;51.50;39.50;25.75
29460;PMS7003;16428;47.836;35.106;2023-02-28T06:26:58;42.75;33.25;23.50
29460;PMS7003;16428;47.836;35.106;2023-02-28T06:29:32;47.00;37.25;25.00
29460;PMS7003;16428;47.836;35.106;2023-02-28T06:32:03;41.00;32.00;24.75
29460;PMS7003;16428;47.836;35.106;2023-02-28T06:34:32;46.50;40.00;27.00
29460;PMS7003;16428;47.836;35.106;2023-02-28T06:37:03;38.75;36.00;24.00
29460;PMS7003;16428;47.836;35.106;2023-02-28T06:39:38;46.00;39.00;27.50
29460;PMS7003;16428;47.836;35.106;2023-02-28T06:42:07;61.25;41.25;28.75
29460;PMS7003;16428;47.836;35.106;2023-02-28T06:44:35;62.25;46.50;28.25
29460;PMS7003;16428;47.836;35.106;2023-02-28T06:47:03;56.75;42.25;28.25
29460;PMS7003;16428;47.836;35.106;2023-02-28T06:49:32;52.00;40.75;29.50
29460;PMS7003;16428;47.836;35.106;2023-02-28T06:52:01;56.75;42.75;28.25
29460;PMS7003;16428;47.836;35.106;2023-02-28T06:54:29;64.75;49.00;32.25
29460;PMS7003;16428;47.836;35.106;2023-02-28T06:56:57;49.75;42.00;30.50
29460;PMS7003;16428;47.836;35.106;2023-02-28T06:59:25;49.50;40.50;27.25
29460;PMS7003;16428;47.836;35.106;2023-02-28T07:01:53;53.00;43.25;27.50
29460;PMS7003;16428;47.836;35.106;2023-02-28T07:04:22;53.00;39.25;28.25
29460;PMS7003;16428;47.836;35.106;2023-02-28T07:06:55;61.25;44.75;32.00
29460;PMS7003;16428;47.836;35.106;2023-02-28T07:09:24;53.50;43.00;28.50
29460;PMS7003;16428;47.836;35.106;2023-02-28T07:11:56;56.00;39.25;27.50
29460;PMS7003;16428;47.836;35.106;2023-02-28T07:14:24;61.75;44.75;30.25
29460;PMS7003;16428;47.836;35.106;2023-02-28T07:16:51;44.75;37.50;27.25
29460;PMS7003;16428;47.836;35.106;2023-02-28T07:19:21;51.25;43.50;28.00
29460;PMS7003;16428;47.836;35.106;2023-02-28T07:21:49;52.00;42.25;29.50
29460;PMS7003;16428;47.836;35.106;2023-02-28T07:24:16;59.00;45.75;29.00
29460;PMS7003;16428;47.836;35.106;2023-02-28T07:26:44;52.75;44.00;29.00
29460;PMS7003;16428;47.836;35.106;2023-02-28T07:29:12;52.75;41.75;29.25
29460;PMS7003;16428;47.836;35.106;2023-02-28T07:31:39;48.50;38.50;25.00
29460;PMS7003;16428;47.836;35.106;2023-02-28T07:34:07;60.75;47.75;31.75
29460;PMS7003;16428;47.836;35.106;2023-02-28T07:36:34;58.75;44.75;29.00
29460;PMS7003;16428;47.836;35.106;2023-02-28T07:39:02;51.00;42.50;29.50
29460;PMS7003;16428;47.836;35.106;2023-02-28T07:41:31;60.75;46.25;30.50
29460;PMS7003;16428;47.836;35.106;2023-02-28T07:44:01;59.50;48.75;30.75
29460;PMS7003;16428;47.836;35.106;2023-02-28T07:46:30;55.25;45.25;29.50
29460;PMS7003;16428;47.836;35.106;2023-02-28T07:49:03;52.75;44.00;29.25
29460;PMS7003;16428;47.836;35.106;2023-02-28T07:51:32;59.75;46.75;33.00
29460;PMS7003;16428;47.836;35.106;2023-02-28T07:54:03;51.75;40.25;26.00
29460;PMS7003;16428;47.836;35.106;2023-02-28T07:56:31;53.50;43.25;26.50
29460;PMS7003;16428;47.836;35.106;2023-02-28T07:58:59;52.50;41.50;27.75
29460;PMS7003;16428;47.836;35.106;2023-02-28T08:01:27;52.50;43.75;30.00
29460;PMS7003;16428;47.836;35.106;2023-02-28T08:03:55;55.50;42.50;29.00
29460;PMS7003;16428;47.836;35.106;2023-02-28T08:06:24;39.00;36.00;24.00
29460;PMS7003;16428;47.836;35.106;2023-02-28T08:08:56;46.25;41.00;28.50
29460;PMS7003;16428;47.836;35.106;2023-02-28T08:11:25;44.00;39.25;26.00
29460;PMS7003;16428;47.836;35.106;2023-02-28T08:13:54;49.00;37.75;25.75
29460;PMS7003;16428;47.836;35.106;2023-02-28T08:16:24;45.00;36.50;24.00
29460;PMS7003;16428;47.836;35.106;2023-02-28T08:18:52;49.50;38.75;26.25
29460;PMS7003;16428;47.836;35.106;2023-02-28T08:21:20;42.50;39.00;26.00
29460;PMS7003;16428;47.836;35.106;2023-02-28T08:23:49;42.00;39.25;28.00
29460;PMS7003;16428;47.836;35.106;2023-02-28T08:26:18;41.75;36.75;27.25
29460;PMS7003;16428;47.836;35.106;2023-02-28T08:28:46;39.75;35.50;24.00
29460;PMS7003;16428;47.836;35.106;2023-02-28T08:31:14;46.75;35.75;24.25
29460;PMS7003;16428;47.836;35.106;2023-02-28T08:33:48;38.50;31.50;21.00
29460;PMS7003;16428;47.836;35.106;2023-02-28T08:36:18;38.00;30.25;21.25
29460;PMS7003;16428;47.836;35.106;2023-02-28T08:38:47;39.00;30.50;20.50
29460;PMS7003;16428;47.836;35.106;2023-02-28T08:41:15;34.50;27.00;20.00
29460;PMS7003;16428;47.836;35.106;2023-02-28T08:43:42;30.50;29.25;20.75
29460;PMS7003;16428;47.836;35.106;2023-02-28T08:46:12;32.75;32.25;23.00
29460;PMS7003;16428;47.836;35.106;2023-02-28T08:48:41;33.00;32.00;24.75
29460;PMS7003;16428;47.836;35.106;2023-02-28T08:51:09;23.75;20.50;16.00
29460;PMS7003;16428;47.836;35.106;2023-02-28T08:53:39;33.50;27.50;20.75
29460;PMS7003;16428;47.836;35.106;2023-02-28T08:56:10;30.50;27.75;20.50
29460;PMS7003;16428;47.836;35.106;2023-02-28T08:58:39;30.00;26.50;19.00
29460;PMS7003;16428;47.836;35.106;2023-02-28T09:01:11;30.00;26.00;19.50
29460;PMS7003;16428;47.836;35.106;2023-02-28T09:03:43;22.25;20.00;15.50
29460;PMS7003;16428;47.836;35.106;2023-02-28T09:06:13;26.75;21.50;18.00
29460;PMS7003;16428;47.836;35.106;2023-02-28T09:08:42;26.25;26.00;17.75
29460;PMS7003;16428;47.836;35.106;2023-02-28T09:11:10;32.25;28.50;19.75
29460;PMS7003;16428;47.836;35.106;2023-02-28T09:13:42;26.50;25.00;20.75
29460;PMS7003;16428;47.836;35.106;2023-02-28T09:16:11;30.00;19.50;15.25
29460;PMS7003;16428;47.836;35.106;2023-02-28T09:18:41;26.75;25.25;20.00
29460;PMS7003;16428;47.836;35.106;2023-02-28T09:21:14;27.50;23.50;18.75
29460;PMS7003;16428;47.836;35.106;2023-02-28T09:23:44;28.25;23.50;17.50
29460;PMS7003;16428;47.836;35.106;2023-02-28T09:26:23;21.00;21.00;15.75
29460;PMS7003;16428;47.836;35.106;2023-02-28T09:28:52;18.50;18.50;14.25
29460;PMS7003;16428;47.836;35.106;2023-02-28T09:31:22;28.50;25.00;18.00
29460;PMS7003;16428;47.836;35.106;2023-02-28T09:33:52;22.75;18.25;15.50
29460;PMS7003;16428;47.836;35.106;2023-02-28T09:36:22;13.75;13.75;11.25
29460;PMS7003;16428;47.836;35.106;2023-02-28T09:39:07;20.25;18.25;15.00
29460;PMS7003;16428;47.836;35.106;2023-02-28T09:41:37;22.25;16.50;11.50
29460;PMS7003;16428;47.836;35.106;2023-02-28T09:47:13;21.00;18.25;14.00
29460;PMS7003;16428;47.836;35.106;2023-02-28T09:49:43;22.00;17.50;13.00
29460;PMS7003;16428;47.836;35.106;2023-02-28T09:52:15;18.50;15.00;11.00
29460;PMS7003;16428;47.836;35.106;2023-02-28T09:54:46;15.75;15.75;12.25
29460;PMS7003;16428;47.836;35.106;2023-02-28T10:02:52;21.75;16.25;13.00
29460;PMS7003;16428;47.836;35.106;2023-02-28T10:05:29;19.25;16.75;12.75
29460;PMS7003;16428;47.836;35.106;2023-02-28T10:08:02;15.50;15.00;10.25
29460;PMS7003;16428;47.836;35.106;2023-02-28T10:10:51;17.00;15.75;12.00
29460;PMS7003;16428;47.836;35.106;2023-02-28T10:13:37;17.25;16.50;10.75
29460;PMS7003;16428;47.836;35.106;2023-02-28T10:16:26;16.25;16.25;12.50
29460;PMS7003;16428;47.836;35.106;2023-02-28T10:19:02;19.75;14.25;12.75
29460;PMS7003;16428;47.836;35.106;2023-02-28T10:21:41;28.25;19.25;14.25
29460;PMS7003;16428;47.836;35.106;2023-02-28T10:24:20;19.75;16.75;14.00
29460;PMS7003;16428;47.836;35.106;2023-02-28T10:27:21;19.75;18.75;12.00
29460;PMS7003;16428;47.836;35.106;2023-02-28T10:29:51;25.25;19.00;12.50
29460;PMS7003;16428;47.836;35.106;2023-02-28T10:32:24;12.75;11.75;10.00
29460;PMS7003;16428;47.836;35.106;2023-02-28T10:37:37;20.75;17.75;14.00
29460;PMS7003;16428;47.836;35.106;2023-02-28T10:40:06;24.25;21.75;14.50
29460;PMS7003;16428;47.836;35.106;2023-02-28T10:45:33;26.25;22.25;17.75
29460;PMS7003;16428;47.836;35.106;2023-02-28T10:58:42;28.00;20.75;19.25
29460;PMS7003;16428;47.836;35.106;2023-02-28T11:04:34;31.00;25.75;19.50
29460;PMS7003;16428;47.836;35.106;2023-02-28T11:09:51;36.25;31.50;23.50
29460;PMS7003;16428;47.836;35.106;2023-02-28T11:12:26;35.50;34.00;22.00
29460;PMS7003;16428;47.836;35.106;2023-02-28T11:15:18;44.75;39.25;26.00
29460;PMS7003;16428;47.836;35.106;2023-02-28T11:17:54;49.00;35.25;26.00
29460;PMS7003;16428;47.836;35.106;2023-02-28T11:20:26;49.00;41.00;26.50
29460;PMS7003;16428;47.836;35.106;2023-02-28T11:22:57;58.50;45.25;29.00
29460;PMS7003;16428;47.836;35.106;2023-02-28T11:25:37;55.75;44.25;26.50
29460;PMS7003;16428;47.836;35.106;2023-02-28T11:28:49;60.00;46.25;31.50
29460;PMS7003;16428;47.836;35.106;2023-02-28T11:36:17;59.25;46.00;32.50
29460;PMS7003;16428;47.836;35.106;2023-02-28T11:39:04;57.75;40.50;27.25
29460;PMS7003;16428;47.836;35.106;2023-02-28T11:50:16;41.25;35.25;26.50
29460;PMS7003;16428;47.836;35.106;2023-02-28T11:53:11;46.00;38.50;26.50
29460;PMS7003;16428;47.836;35.106;2023-02-28T11:55:52;46.50;31.75;22.00
29460;PMS7003;16428;47.836;35.106;2023-02-28T12:10:35;30.00;28.00;21.50
29460;PMS7003;16428;47.836;35.106;2023-02-28T12:21:18;20.25;17.00;10.75
29460;PMS7003;16428;47.836;35.106;2023-02-28T12:23:55;24.50;17.00;13.50
29460;PMS7003;16428;47.836;35.106;2023-02-28T12:26:45;24.50;24.25;17.75
29460;PMS7003;16428;47.836;35.106;2023-02-28T12:29:24;22.00;21.00;15.00
29460;PMS7003;16428;47.836;35.106;2023-02-28T12:35:10;24.00;19.75;15.00
29460;PMS7003;16428;47.836;35.106;2023-02-28T12:40:23;24.25;19.25;15.00
29460;PMS7003;16428;47.836;35.106;2023-02-28T12:42:59;28.50;27.25;21.25
29460;PMS7003;16428;47.836;35.106;2023-02-28T12:48:20;30.75;24.25;19.25
29460;PMS7003;16428;47.836;35.106;2023-02-28T12:50:52;21.00;18.75;14.50
29460;PMS7003;16428;47.836;35.106;2023-02-28T12:53:35;26.50;26.50;17.25
29460;PMS7003;16428;47.836;35.106;2023-02-28T12:58:50;25.00;21.00;16.00
29460;PMS7003;16428;47.836;35.106;2023-02-28T13:07:08;26.00;22.75;16.50
29460;PMS7003;16428;47.836;35.106;2023-02-28T13:09:41;25.75;21.50;15.50
29460;PMS7003;16428;47.836;35.106;2023-02-28T13:12:24;18.00;18.00;13.25
29460;PMS7003;16428;47.836;35.106;2023-02-28T13:15:39;21.00;16.00;13.00
29460;PMS7003;16428;47.836;35.106;2023-02-28T13:17:52;15.50;15.50;11.75
29460;PMS7003;16428;47.836;35.106;2023-02-28T13:20:47;19.00;18.75;13.75
29460;PMS7003;16428;47.836;35.106;2023-02-28T13:28:58;17.75;15.75;11.50
29460;PMS7003;16428;47.836;35.106;2023-02-28T13:34:34;22.75;18.75;14.75
29460;PMS7003;16428;47.836;35.106;2023-02-28T13:39:54;33.00;30.75;23.25
29460;PMS7003;16428;47.836;35.106;2023-02-28T13:47:33;17.00;17.00;12.50
29460;PMS7003;16428;47.836;35.106;2023-02-28T14:04:11;15.50;15.25;11.50
29460;PMS7003;16428;47.836;35.106;2023-02-28T14:07:01;13.00;13.00;9.00
29460;PMS7003;16428;47.836;35.106;2023-02-28T14:09:31;20.50;15.50;14.25
29460;PMS7003;16428;47.836;35.106;2023-02-28T14:15:34;25.25;19.25;14.50
29460;PMS7003;16428;47.836;35.106;2023-02-28T14:18:29;20.00;20.00;15.00
29460;PMS7003;16428;47.836;35.106;2023-02-28T14:21:43;23.75;20.00;13.75
29460;PMS7003;16428;47.836;35.106;2023-02-28T14:35:05;18.75;18.75;14.75
29460;PMS7003;16428;47.836;35.106;2023-02-28T14:38:00;25.25;17.50;14.00
29460;PMS7003;16428;47.836;35.106;2023-02-28T14:40:34;24.25;19.00;15.25
29460;PMS7003;16428;47.836;35.106;2023-02-28T14:43:16;24.50;20.25;15.25
29460;PMS7003;16428;47.836;35.106;2023-02-28T14:45:57;20.00;18.50;14.00
29460;PMS7003;16428;47.836;35.106;2023-02-28T14:48:27;18.25;18.25;15.25
29460;PMS7003;16428;47.836;35.106;2023-02-28T14:50:59;21.25;21.25;16.00
29460;PMS7003;16428;47.836;35.106;2023-02-28T14:53:29;31.25;25.75;19.50
29460;PMS7003;16428;47.836;35.106;2023-02-28T14:56:02;21.00;18.75;15.50
29460;PMS7003;16428;47.836;35.106;2023-02-28T14:58:31;20.50;18.75;14.00
29460;PMS7003;16428;47.836;35.106;2023-02-28T15:01:01;24.75;24.75;17.25
29460;PMS7003;16428;47.836;35.106;2023-02-28T15:06:01;31.50;23.00;17.50
29460;PMS7003;16428;47.836;35.106;2023-02-28T15:08:32;29.25;23.75;18.00
29460;PMS7003;16428;47.836;35.106;2023-02-28T15:11:04;21.00;19.50;13.00
29460;PMS7003;16428;47.836;35.106;2023-02-28T15:16:13;21.25;13.50;11.50
29460;PMS7003;16428;47.836;35.106;2023-02-28T15:18:54;27.75;21.00;14.25
29460;PMS7003;16428;47.836;35.106;2023-02-28T15:21:57;24.50;22.00;17.25
29460;PMS7003;16428;47.836;35.106;2023-02-28T15:27:04;29.50;26.50;19.00
29460;PMS7003;16428;47.836;35.106;2023-02-28T15:29:45;23.00;20.25;17.25
29460;PMS7003;16428;47.836;35.106;2023-02-28T15:34:59;27.25;24.25;17.75
29460;PMS7003;16428;47.836;35.106;2023-02-28T15:40:55;19.00;17.50;13.25
29460;PMS7003;16428;47.836;35.106;2023-02-28T15:43:32;20.75;17.25;13.25
29460;PMS7003;16428;47.836;35.106;2023-02-28T15:46:02;28.00;23.50;17.25
29460;PMS7003;16428;47.836;35.106;2023-02-28T15:48:38;19.50;19.50;16.00
29460;PMS7003;16428;47.836;35.106;2023-02-28T15:53:41;20.75;20.25;16.75
29460;PMS7003;16428;47.836;35.106;2023-02-28T15:56:31;22.25;20.75;17.00
29460;PMS7003;16428;47.836;35.106;2023-02-28T15:59:05;25.75;19.75;14.50
29460;PMS7003;16428;47.836;35.106;2023-02-28T16:01:35;25.00;22.25;17.00
29460;PMS7003;16428;47.836;35.106;2023-02-28T16:04:15;23.75;21.00;16.50
29460;PMS7003;16428;47.836;35.106;2023-02-28T16:06:45;22.75;20.50;14.50
29460;PMS7003;16428;47.836;35.106;2023-02-28T16:09:31;20.75;20.50;14.75
29460;PMS7003;16428;47.836;35.106;2023-02-28T16:12:02;29.75;25.25;20.50
29460;PMS7003;16428;47.836;35.106;2023-02-28T16:14:30;21.75;18.75;15.00
29460;PMS7003;16428;47.836;35.106;2023-02-28T16:17:03;15.75;13.00;9.75
29460;PMS7003;16428;47.836;35.106;2023-02-28T16:19:32;15.75;6.75;4.00
29460;PMS7003;16428;47.836;35.106;2023-02-28T16:22:05;18.00;15.50;12.75
29460;PMS7003;16428;47.836;35.106;2023-02-28T16:24:33;23.75;21.25;17.00
29460;PMS7003;16428;47.836;35.106;2023-02-28T16:27:00;21.50;19.25;16.50
29460;PMS7003;16428;47.836;35.106;2023-02-28T16:29:29;18.00;14.75;12.50
29460;PMS7003;16428;47.836;35.106;2023-02-28T16:31:59;21.50;15.75;13.00
29460;PMS7003;16428;47.836;35.106;2023-02-28T16:34:29;20.75;19.50;13.75
29460;PMS7003;16428;47.836;35.106;2023-02-28T16:36:57;26.25;22.50;15.50
29460;PMS7003;16428;47.836;35.106;2023-02-28T16:39:25;21.25;21.25;16.00
29460;PMS7003;16428;47.836;35.106;2023-02-28T16:41:52;12.75;12.75;11.75
29460;PMS7003;16428;47.836;35.106;2023-02-28T16:44:30;18.50;15.25;11.00
29460;PMS7003;16428;47.836;35.106;2023-02-28T16:47:01;26.50;23.75;18.50
29460;PMS7003;16428;47.836;35.106;2023-02-28T16:49:29;27.00;24.00;17.50
29460;PMS7003;16428;47.836;35.106;2023-02-28T16:51:57;13.75;13.25;11.50
29460;PMS7003;16428;47.836;35.106;2023-02-28T16:54:25;25.50;21.75;17.00
29460;PMS7003;16428;47.836;35.106;2023-02-28T16:56:53;29.50;28.50;20.75
29460;PMS7003;16428;47.836;35.106;2023-02-28T16:59:22;27.00;24.75;18.75
29460;PMS7003;16428;47.836;35.106;2023-02-28T17:01:51;26.75;23.25;19.25